Terminal Aerodrome Forecast
Issued by NWS Lake Charles, LA

Home | Current Version | Previous Version | Text Only | Print | Product List | Glossary On
Versions: 1 2 3 4 5 6 7 8 9 10 11 12 13 14 15 16 17 18 19 20 21 22 23 24
766
FTUS44 KLCH 201744
TAFLCH
TAF
KLCH 201744Z 2018/2118 23006KT P6SM SCT015
      TEMPO 2018/2019 BKN012
     FM210100 VRB05KT 4SM -TSRA OVC007CB
     FM210800 VRB04KT 1/2SM FG OVC003 PROB30 2108/2112 1SM -TSRA
      OVC007CB
     FM211600 22007KT P6SM OVC007=

USA.gov is the U.S. government's official web portal to all federal, state and local government web resources and services.